1990 ODILE (1990267N13252)


On this page: IBTrACS data - Map and Plots - Positions - Intensities - Original source data

Summary

Start Sep 23
End Oct 2
Basin EP
LMI 125 kt
Sources hurdat_epa
jtwc_ep
atcf
In WMO? Yes
Previous storm 1990 JOSEPHINE (NA)
Previous in basin 1990 MISSING (EP)
Concurrent storms 1990 GENE (WP)
1990 MISSING (NA)
1991 HSK0191 (SI)
1990 JOSEPHINE (NA)
1990 ODILE (EP)
1990 RACHEL (EP)
1990 HATTIE (WP)
1990 POLO (EP)
1990 IRA (WP)
Next in basin 1990 RACHEL (EP)
Next storm 1990 RACHEL (EP)

top of page IBTrACS Data: File Access

top of page HURSAT Data: File Access

Image of storm

top of page Plots:

Map of storm track will not appear if FTP is down
Time series of cyclone Maximum Sustained Wind will not appear if FTP is down
Time series of cyclone Minimum Central Pressure will not appear if FTP is down

top of page Track Data:Position

hurdat_epa jtwc_ep atcf
Date Lat Lon Lat Lon Lat Lon
1990-09-23 12:00:00 12.5 -108.5 12.5 -108.5 12.5 -108.5
1990-09-23 18:00:00 12.8 -109.6 12.8 -109.6 12.8 -109.6
1990-09-24 00:00:00 12.8 -110.6 12.8 -110.6 12.8 -110.6
1990-09-24 06:00:00 12.8 -111.6 12.8 -111.6 12.8 -111.6
1990-09-24 12:00:00 13.0 -112.6 13.0 -112.6 13.0 -112.6
1990-09-24 18:00:00 13.1 -113.6 13.1 -113.6 13.1 -113.6
1990-09-25 00:00:00 13.2 -114.7 13.2 -114.7 13.2 -114.7
1990-09-25 06:00:00 13.4 -115.8 13.4 -115.8 13.4 -115.8
1990-09-25 12:00:00 13.6 -117.0 13.6 -117.0 13.6 -117.0
1990-09-25 18:00:00 13.9 -118.3 13.9 -118.3 13.9 -118.3
1990-09-26 00:00:00 14.3 -119.6 14.3 -119.6 14.3 -119.6
1990-09-26 06:00:00 14.7 -120.9 14.7 -120.9 14.7 -120.9
1990-09-26 12:00:00 15.2 -122.1 15.2 -122.1 15.2 -122.1
1990-09-26 18:00:00 15.7 -123.4 15.7 -123.4 15.7 -123.4
1990-09-27 00:00:00 16.3 -124.5 16.3 -124.5 16.3 -124.5
1990-09-27 06:00:00 17.0 -125.6 17.0 -125.6 17.0 -125.6
1990-09-27 12:00:00 17.7 -126.6 17.7 -126.6 17.7 -126.6
1990-09-27 18:00:00 18.3 -127.2 18.3 -127.2 18.3 -127.2
1990-09-28 00:00:00 18.9 -127.8 18.9 -127.8 18.9 -127.8
1990-09-28 06:00:00 19.5 -128.2 19.5 -128.2 19.5 -128.2
1990-09-28 12:00:00 20.1 -128.6 20.1 -128.6 20.1 -128.6
1990-09-28 18:00:00 20.6 -128.7 20.6 -128.7 20.6 -128.7
1990-09-29 00:00:00 21.0 -128.7 21.0 -128.7 21.0 -128.7
1990-09-29 06:00:00 21.2 -128.7 21.2 -128.7 21.2 -128.7
1990-09-29 12:00:00 21.3 -128.8 21.3 -128.8 21.3 -128.8
hurdat_epa jtwc_ep atcf
1990-09-29 18:00:00 21.2 -129.0 21.2 -129.0 21.2 -129.0
1990-09-30 00:00:00 20.9 -129.3 20.9 -129.3 20.9 -129.3
1990-09-30 06:00:00 20.5 -129.6 20.5 -129.6 20.5 -129.6
1990-09-30 12:00:00 19.9 -130.0 19.9 -130.0 19.9 -130.0
1990-09-30 18:00:00 19.5 -130.5 19.5 -130.5 19.5 -130.5
1990-10-01 00:00:00 19.2 -131.1 19.2 -131.1 19.2 -131.1
1990-10-01 06:00:00 18.9 -131.8 18.9 -131.8 18.9 -131.8
1990-10-01 12:00:00 18.5 -132.7 18.5 -132.7 18.5 -132.7
1990-10-01 18:00:00 18.2 -133.6 18.2 -133.6 18.2 -133.6
1990-10-02 00:00:00 17.9 -134.6 17.9 -134.6 17.9 -134.6

top of pageTrack Data:Intensity

hurdat_epa jtwc_ep atcf
Date Wind Pres Wind Pres Wind Pres
1990-09-23 12:00:00 25. 1011. 25. 25. 1011.
1990-09-23 18:00:00 30. 1009. 30. 30. 1009.
1990-09-24 00:00:00 30. 1006. 30. 30. 1006.
1990-09-24 06:00:00 40. 1002. 40. 40. 1002.
1990-09-24 12:00:00 45. 998. 45. 45. 998.
1990-09-24 18:00:00 55. 995. 55. 55. 995.
1990-09-25 00:00:00 55. 994. 55. 55. 994.
1990-09-25 06:00:00 60. 988. 60. 60. 988.
1990-09-25 12:00:00 70. 980. 70. 70. 980.
1990-09-25 18:00:00 85. 972. 85. 85. 972.
1990-09-26 00:00:00 95. 965. 95. 95. 965.
1990-09-26 06:00:00 110. 953. 110. 110. 953.
1990-09-26 12:00:00 125. 935. 125. 125. 935.
1990-09-26 18:00:00 125. 935. 125. 125. 935.
1990-09-27 00:00:00 125. 935. 125. 125. 935.
1990-09-27 06:00:00 125. 935. 125. 125. 935.
1990-09-27 12:00:00 125. 935. 125. 125. 935.
1990-09-27 18:00:00 115. 946. 115. 115. 946.
1990-09-28 00:00:00 100. 960. 100. 100. 960.
1990-09-28 06:00:00 95. 963. 95. 95. 963.
1990-09-28 12:00:00 90. 970. 90. 90. 970.
1990-09-28 18:00:00 75. 980. 75. 75. 980.
1990-09-29 00:00:00 65. 988. 65. 65. 988.
1990-09-29 06:00:00 55. 994. 55. 55. 994.
1990-09-29 12:00:00 50. 998. 50. 50. 998.
hurdat_epa jtwc_ep atcf
1990-09-29 18:00:00 45. 1002. 45. 45. 1002.
1990-09-30 00:00:00 35. 1006. 35. 35. 1006.
1990-09-30 06:00:00 30. 1008. 30. 30. 1008.
1990-09-30 12:00:00 30. 1010. 30. 30. 1010.
1990-09-30 18:00:00 25. 1011. 25. 25. 1011.
1990-10-01 00:00:00 25. 1012. 25. 25. 1012.
1990-10-01 06:00:00 25. 1012. 25. 25. 1012.
1990-10-01 12:00:00 25. 1012. 25. 25. 1012.
1990-10-01 18:00:00 20. 1012. 20. 20. 1012.
1990-10-02 00:00:00 20. 1012. 20. 20. 1012.

top of page Links to source data

Source Source file Format
hurdat_epa tracks1949to2011_epa.html:562:ODILE HURDAT
jtwc_ep bep191990.txt ATCF
atcf bep191990.dat ATCF